sensor_id;sensor_type;location;lat;lon;timestamp;pressure;altitude;pressure_sealevel;temperature;humidity
75312;BME280;63906;55.686;37.532;2023-06-22T00:00:28;99752.16;;;11.76;57.81
75312;BME280;63906;55.686;37.532;2023-06-22T00:05:29;99728.75;;;11.66;58.42
75312;BME280;63906;55.686;37.532;2023-06-22T00:10:29;99760.47;;;11.79;58.36
75312;BME280;63906;55.686;37.532;2023-06-22T00:15:30;99750.69;;;11.73;58.80
75312;BME280;63906;55.686;37.532;2023-06-22T00:20:31;99761.13;;;11.81;58.68
75312;BME280;63906;55.686;37.532;2023-06-22T00:25:33;99752.97;;;11.76;58.29
75312;BME280;63906;55.686;37.532;2023-06-22T00:30:34;99750.25;;;11.63;58.45
75312;BME280;63906;55.686;37.532;2023-06-22T00:35:35;99746.78;;;11.63;58.83
75312;BME280;63906;55.686;37.532;2023-06-22T00:40:35;99742.09;;;11.58;58.32
75312;BME280;63906;55.686;37.532;2023-06-22T00:45:36;99749.03;;;11.66;58.75
75312;BME280;63906;55.686;37.532;2023-06-22T00:50:37;99750.84;;;11.65;58.81
75312;BME280;63906;55.686;37.532;2023-06-22T00:55:42;99725.16;;;11.39;58.83
75312;BME280;63906;55.686;37.532;2023-06-22T01:00:51;99746.00;;;11.62;59.22
75312;BME280;63906;55.686;37.532;2023-06-22T01:05:56;99752.88;;;11.63;59.11
75312;BME280;63906;55.686;37.532;2023-06-22T01:16:27;99773.31;;;11.82;58.84
75312;BME280;63906;55.686;37.532;2023-06-22T01:21:30;99691.56;;;11.20;58.91
75312;BME280;63906;55.686;37.532;2023-06-22T01:26:42;99760.63;;;11.71;59.06
75312;BME280;63906;55.686;37.532;2023-06-22T01:31:44;99769.41;;;11.78;59.38
75312;BME280;63906;55.686;37.532;2023-06-22T01:36:45;99759.84;;;11.77;59.20
75312;BME280;63906;55.686;37.532;2023-06-22T01:41:47;99759.47;;;11.80;59.37
75312;BME280;63906;55.686;37.532;2023-06-22T01:46:49;99735.06;;;11.72;59.20
75312;BME280;63906;55.686;37.532;2023-06-22T01:51:50;99715.97;;;11.63;58.85
75312;BME280;63906;55.686;37.532;2023-06-22T01:56:51;99763.44;;;11.98;59.14
75312;BME280;63906;55.686;37.532;2023-06-22T02:01:59;99767.72;;;11.99;59.78
75312;BME280;63906;55.686;37.532;2023-06-22T02:07:05;99768.97;;;12.09;59.61
75312;BME280;63906;55.686;37.532;2023-06-22T02:12:11;99769.22;;;12.15;59.09
75312;BME280;63906;55.686;37.532;2023-06-22T02:17:13;99728.78;;;12.07;59.10
75312;BME280;63906;55.686;37.532;2023-06-22T02:22:14;99741.47;;;12.25;59.43
75312;BME280;63906;55.686;37.532;2023-06-22T02:27:15;99731.50;;;12.27;59.67
75312;BME280;63906;55.686;37.532;2023-06-22T02:32:15;99727.50;;;12.38;59.44
75312;BME280;63906;55.686;37.532;2023-06-22T02:37:18;99716.72;;;12.39;59.06
75312;BME280;63906;55.686;37.532;2023-06-22T02:42:18;99718.38;;;12.60;58.99
75312;BME280;63906;55.686;37.532;2023-06-22T02:47:20;99713.53;;;12.71;58.93
75312;BME280;63906;55.686;37.532;2023-06-22T02:52:21;99697.91;;;12.82;58.47
75312;BME280;63906;55.686;37.532;2023-06-22T02:57:21;99717.63;;;13.19;57.69
75312;BME280;63906;55.686;37.532;2023-06-22T03:02:22;99702.19;;;13.36;57.20
75312;BME280;63906;55.686;37.532;2023-06-22T03:07:23;99730.94;;;13.84;56.82
75312;BME280;63906;55.686;37.532;2023-06-22T03:12:23;99655.31;;;13.70;55.43
75312;BME280;63906;55.686;37.532;2023-06-22T03:17:24;99724.38;;;14.51;53.97
75312;BME280;63906;55.686;37.532;2023-06-22T03:22:25;99713.06;;;14.69;53.66
75312;BME280;63906;55.686;37.532;2023-06-22T03:27:25;99700.13;;;14.86;52.06
75312;BME280;63906;55.686;37.532;2023-06-22T03:32:26;99697.56;;;15.23;50.77
75312;BME280;63906;55.686;37.532;2023-06-22T03:37:28;99699.47;;;15.59;49.64
75312;BME280;63906;55.686;37.532;2023-06-22T03:42:29;99695.88;;;15.72;49.13
75312;BME280;63906;55.686;37.532;2023-06-22T03:47:30;99677.72;;;15.87;48.92
75312;BME280;63906;55.686;37.532;2023-06-22T03:52:30;99707.59;;;16.31;47.63
75312;BME280;63906;55.686;37.532;2023-06-22T03:57:31;99653.28;;;16.27;46.95
75312;BME280;63906;55.686;37.532;2023-06-22T04:02:31;99680.16;;;16.79;45.62
75312;BME280;63906;55.686;37.532;2023-06-22T04:07:32;99700.78;;;17.18;44.91
75312;BME280;63906;55.686;37.532;2023-06-22T04:12:33;99612.19;;;17.06;43.06
75312;BME280;63906;55.686;37.532;2023-06-22T04:17:34;99667.91;;;17.71;42.62
75312;BME280;63906;55.686;37.532;2023-06-22T04:22:34;99688.84;;;18.20;42.02
75312;BME280;63906;55.686;37.532;2023-06-22T04:27:35;99674.97;;;18.35;41.76
75312;BME280;63906;55.686;37.532;2023-06-22T04:32:40;99667.16;;;18.62;40.86
75312;BME280;63906;55.686;37.532;2023-06-22T04:37:41;99683.06;;;18.85;40.24
75312;BME280;63906;55.686;37.532;2023-06-22T04:42:41;99668.09;;;19.01;39.84
75312;BME280;63906;55.686;37.532;2023-06-22T04:47:52;99570.72;;;18.65;39.25
75312;BME280;63906;55.686;37.532;2023-06-22T04:52:52;99642.78;;;19.20;38.62
75312;BME280;63906;55.686;37.532;2023-06-22T04:57:53;99656.66;;;19.22;39.22
75312;BME280;63906;55.686;37.532;2023-06-22T05:02:54;99647.00;;;18.99;39.48
75312;BME280;63906;55.686;37.532;2023-06-22T05:07:57;99658.88;;;18.92;39.81
75312;BME280;63906;55.686;37.532;2023-06-22T05:13:00;99664.13;;;19.03;40.29
75312;BME280;63906;55.686;37.532;2023-06-22T05:18:01;99677.38;;;19.15;40.28
75312;BME280;63906;55.686;37.532;2023-06-22T05:23:05;99639.56;;;19.01;40.28
75312;BME280;63906;55.686;37.532;2023-06-22T05:28:06;99639.47;;;19.13;40.15
75312;BME280;63906;55.686;37.532;2023-06-22T05:33:11;99636.13;;;19.23;40.13
75312;BME280;63906;55.686;37.532;2023-06-22T05:38:11;99649.63;;;19.55;39.67
75312;BME280;63906;55.686;37.532;2023-06-22T05:43:15;99674.75;;;19.98;39.07
75312;BME280;63906;55.686;37.532;2023-06-22T05:48:15;99654.59;;;20.12;38.58
75312;BME280;63906;55.686;37.532;2023-06-22T05:53:16;99645.47;;;20.08;38.34
75312;BME280;63906;55.686;37.532;2023-06-22T05:58:17;99665.38;;;20.22;38.65
75312;BME280;63906;55.686;37.532;2023-06-22T06:03:17;99631.66;;;20.16;38.62
75312;BME280;63906;55.686;37.532;2023-06-22T06:08:18;99640.31;;;20.28;38.44
75312;BME280;63906;55.686;37.532;2023-06-22T06:13:18;99609.13;;;20.07;38.40
75312;BME280;63906;55.686;37.532;2023-06-22T06:18:19;99623.16;;;20.19;38.33
75312;BME280;63906;55.686;37.532;2023-06-22T06:23:20;99629.16;;;20.36;38.20
75312;BME280;63906;55.686;37.532;2023-06-22T06:28:20;99667.47;;;20.69;37.78
75312;BME280;63906;55.686;37.532;2023-06-22T06:33:21;99669.19;;;20.85;37.19
75312;BME280;63906;55.686;37.532;2023-06-22T06:38:21;99653.44;;;20.89;36.40
75312;BME280;63906;55.686;37.532;2023-06-22T06:43:22;99658.63;;;21.01;36.01
75312;BME280;63906;55.686;37.532;2023-06-22T06:48:23;99669.06;;;21.39;34.98
75312;BME280;63906;55.686;37.532;2023-06-22T06:53:24;99648.56;;;21.70;34.16
75312;BME280;63906;55.686;37.532;2023-06-22T06:58:25;99637.69;;;22.08;33.50
75312;BME280;63906;55.686;37.532;2023-06-22T07:03:26;99651.22;;;22.48;33.13
75312;BME280;63906;55.686;37.532;2023-06-22T07:08:26;99631.88;;;22.82;32.83
75312;BME280;63906;55.686;37.532;2023-06-22T07:13:27;99649.06;;;23.01;32.55
75312;BME280;63906;55.686;37.532;2023-06-22T07:18:27;99654.94;;;23.08;32.47
75312;BME280;63906;55.686;37.532;2023-06-22T07:23:28;99636.94;;;23.19;32.91
75312;BME280;63906;55.686;37.532;2023-06-22T07:28:29;99606.53;;;23.29;32.63
75312;BME280;63906;55.686;37.532;2023-06-22T07:33:37;99611.88;;;23.44;31.95
75312;BME280;63906;55.686;37.532;2023-06-22T07:38:37;99637.78;;;23.84;32.55
75312;BME280;63906;55.686;37.532;2023-06-22T07:43:38;99631.59;;;23.89;31.62
75312;BME280;63906;55.686;37.532;2023-06-22T07:48:38;99636.63;;;24.01;31.39
75312;BME280;63906;55.686;37.532;2023-06-22T07:53:43;99643.72;;;24.26;31.19
75312;BME280;63906;55.686;37.532;2023-06-22T07:58:45;99630.25;;;24.31;31.07
75312;BME280;63906;55.686;37.532;2023-06-22T08:03:49;99633.38;;;24.48;30.57
75312;BME280;63906;55.686;37.532;2023-06-22T08:08:50;99592.66;;;24.21;30.82
75312;BME280;63906;55.686;37.532;2023-06-22T08:13:53;99618.06;;;24.43;30.69
75312;BME280;63906;55.686;37.532;2023-06-22T08:18:55;99622.84;;;24.52;31.22
75312;BME280;63906;55.686;37.532;2023-06-22T08:23:56;99625.06;;;24.79;31.20
75312;BME280;63906;55.686;37.532;2023-06-22T08:28:57;99618.88;;;25.07;30.01
75312;BME280;63906;55.686;37.532;2023-06-22T08:33:57;99593.63;;;24.98;30.18
75312;BME280;63906;55.686;37.532;2023-06-22T08:38:58;99554.00;;;24.75;29.65
75312;BME280;63906;55.686;37.532;2023-06-22T08:44:04;99609.25;;;24.96;30.26
75312;BME280;63906;55.686;37.532;2023-06-22T08:49:06;99576.72;;;24.63;30.61
75312;BME280;63906;55.686;37.532;2023-06-22T08:54:12;99574.84;;;24.30;30.70
75312;BME280;63906;55.686;37.532;2023-06-22T08:59:12;99603.19;;;24.17;31.10
75312;BME280;63906;55.686;37.532;2023-06-22T09:04:13;99597.69;;;23.93;31.38
75312;BME280;63906;55.686;37.532;2023-06-22T09:09:15;99564.72;;;23.77;31.46
75312;BME280;63906;55.686;37.532;2023-06-22T09:14:16;99512.44;;;23.49;32.12
75312;BME280;63906;55.686;37.532;2023-06-22T09:19:17;99538.38;;;23.79;31.63
75312;BME280;63906;55.686;37.532;2023-06-22T09:24:17;99563.06;;;24.21;31.46
75312;BME280;63906;55.686;37.532;2023-06-22T09:29:18;99550.22;;;24.12;31.58
75312;BME280;63906;55.686;37.532;2023-06-22T09:34:19;99548.50;;;24.27;31.10
75312;BME280;63906;55.686;37.532;2023-06-22T09:39:20;99529.00;;;24.11;31.25
75312;BME280;63906;55.686;37.532;2023-06-22T09:44:21;99563.50;;;24.33;31.57
75312;BME280;63906;55.686;37.532;2023-06-22T09:49:21;99551.34;;;24.40;31.00
75312;BME280;63906;55.686;37.532;2023-06-22T09:54:25;99555.16;;;24.68;30.72
75312;BME280;63906;55.686;37.532;2023-06-22T09:59:25;99538.88;;;25.88;29.37
75312;BME280;63906;55.686;37.532;2023-06-22T10:04:26;99522.00;;;28.39;25.96
75312;BME280;63906;55.686;37.532;2023-06-22T10:09:27;99528.16;;;30.11;24.40
75312;BME280;63906;55.686;37.532;2023-06-22T10:14:30;99511.41;;;31.02;23.09
75312;BME280;63906;55.686;37.532;2023-06-22T10:19:31;99523.72;;;32.58;21.61
75312;BME280;63906;55.686;37.532;2023-06-22T10:24:32;99473.53;;;33.89;20.24
75312;BME280;63906;55.686;37.532;2023-06-22T10:29:32;99465.72;;;35.33;18.85
75312;BME280;63906;55.686;37.532;2023-06-22T10:34:33;99477.03;;;36.09;17.72
75312;BME280;63906;55.686;37.532;2023-06-22T10:39:34;99488.03;;;37.68;16.27
75312;BME280;63906;55.686;37.532;2023-06-22T10:44:34;99439.50;;;38.68;15.31
75312;BME280;63906;55.686;37.532;2023-06-22T10:49:35;99441.38;;;39.19;15.44
75312;BME280;63906;55.686;37.532;2023-06-22T10:54:37;99468.34;;;41.22;12.42
75312;BME280;63906;55.686;37.532;2023-06-22T10:59:38;99466.13;;;40.38;12.52
75312;BME280;63906;55.686;37.532;2023-06-22T11:04:38;99453.88;;;40.21;13.58
75312;BME280;63906;55.686;37.532;2023-06-22T11:09:39;99445.47;;;42.46;12.42
75312;BME280;63906;55.686;37.532;2023-06-22T11:14:40;99438.44;;;41.02;12.49
75312;BME280;63906;55.686;37.532;2023-06-22T11:19:40;99402.25;;;40.47;12.63
75312;BME280;63906;55.686;37.532;2023-06-22T11:24:41;99440.75;;;43.53;11.20
75312;BME280;63906;55.686;37.532;2023-06-22T11:29:41;99361.38;;;42.37;11.36
75312;BME280;63906;55.686;37.532;2023-06-22T11:34:42;99422.03;;;42.17;11.93
75312;BME280;63906;55.686;37.532;2023-06-22T11:39:43;99391.31;;;43.48;11.44
75312;BME280;63906;55.686;37.532;2023-06-22T11:44:43;99377.00;;;44.70;10.38
75312;BME280;63906;55.686;37.532;2023-06-22T11:49:44;99395.66;;;44.70;10.30
75312;BME280;63906;55.686;37.532;2023-06-22T11:54:47;99380.22;;;46.10;9.44
75312;BME280;63906;55.686;37.532;2023-06-22T11:59:48;99393.75;;;43.96;10.30
75312;BME280;63906;55.686;37.532;2023-06-22T12:04:48;99383.72;;;44.29;10.33
75312;BME280;63906;55.686;37.532;2023-06-22T12:09:52;99370.38;;;45.40;9.36
75312;BME280;63906;55.686;37.532;2023-06-22T12:14:53;99359.25;;;44.84;9.46
75312;BME280;63906;55.686;37.532;2023-06-22T12:19:53;99334.81;;;43.11;10.37
75312;BME280;63906;55.686;37.532;2023-06-22T12:24:54;99365.47;;;39.18;12.97
75312;BME280;63906;55.686;37.532;2023-06-22T12:29:54;99349.03;;;40.53;12.51
75312;BME280;63906;55.686;37.532;2023-06-22T12:34:55;99339.59;;;42.39;11.13
75312;BME280;63906;55.686;37.532;2023-06-22T12:39:56;99342.91;;;42.95;10.53
75312;BME280;63906;55.686;37.532;2023-06-22T12:44:56;99322.06;;;42.87;10.90
75312;BME280;63906;55.686;37.532;2023-06-22T12:49:57;99334.53;;;44.06;9.52
75312;BME280;63906;55.686;37.532;2023-06-22T12:54:57;99315.28;;;43.72;9.62
75312;BME280;63906;55.686;37.532;2023-06-22T12:59:58;99303.16;;;42.06;10.40
75312;BME280;63906;55.686;37.532;2023-06-22T13:05:01;99307.19;;;40.73;11.09
75312;BME280;63906;55.686;37.532;2023-06-22T13:10:05;99303.75;;;37.87;12.84
75312;BME280;63906;55.686;37.532;2023-06-22T13:15:06;99293.88;;;34.14;15.71
75312;BME280;63906;55.686;37.532;2023-06-22T13:20:07;99297.09;;;31.95;17.94
75312;BME280;63906;55.686;37.532;2023-06-22T13:25:08;99268.03;;;32.36;18.19
75312;BME280;63906;55.686;37.532;2023-06-22T13:30:12;99245.38;;;33.00;18.00
75312;BME280;63906;55.686;37.532;2023-06-22T13:35:13;99253.28;;;36.24;15.94
75312;BME280;63906;55.686;37.532;2023-06-22T13:40:14;99298.66;;;38.41;14.86
75312;BME280;63906;55.686;37.532;2023-06-22T13:45:15;99296.47;;;38.75;14.04
75312;BME280;63906;55.686;37.532;2023-06-22T13:50:17;99263.59;;;36.90;15.14
75312;BME280;63906;55.686;37.532;2023-06-22T13:55:18;99273.03;;;37.75;14.75
75312;BME280;63906;55.686;37.532;2023-06-22T14:00:21;99265.38;;;37.13;15.15
75312;BME280;63906;55.686;37.532;2023-06-22T14:05:22;99228.88;;;35.16;16.96
75312;BME280;63906;55.686;37.532;2023-06-22T14:10:22;99255.41;;;33.40;18.54
75312;BME280;63906;55.686;37.532;2023-06-22T14:15:23;99252.38;;;32.33;19.00
75312;BME280;63906;55.686;37.532;2023-06-22T14:20:23;99274.03;;;31.56;19.70
75312;BME280;63906;55.686;37.532;2023-06-22T14:25:24;99209.09;;;30.34;20.33
75312;BME280;63906;55.686;37.532;2023-06-22T14:30:25;99263.69;;;30.83;20.68
75312;BME280;63906;55.686;37.532;2023-06-22T14:35:25;99221.66;;;30.60;20.99
75312;BME280;63906;55.686;37.532;2023-06-22T14:40:26;99248.56;;;30.94;21.21
75312;BME280;63906;55.686;37.532;2023-06-22T14:45:26;99213.97;;;30.20;21.91
75312;BME280;63906;55.686;37.532;2023-06-22T14:50:27;99231.00;;;30.29;22.00
75312;BME280;63906;55.686;37.532;2023-06-22T14:55:28;99247.88;;;30.05;21.77
75312;BME280;63906;55.686;37.532;2023-06-22T15:00:29;99237.16;;;29.79;21.69
75312;BME280;63906;55.686;37.532;2023-06-22T15:05:29;99237.47;;;29.31;22.68
75312;BME280;63906;55.686;37.532;2023-06-22T15:10:30;99226.38;;;28.80;23.35
75312;BME280;63906;55.686;37.532;2023-06-22T15:15:33;99217.31;;;28.76;23.47
75312;BME280;63906;55.686;37.532;2023-06-22T15:20:34;99229.75;;;28.60;23.80
75312;BME280;63906;55.686;37.532;2023-06-22T15:25:34;99206.97;;;28.35;23.93
75312;BME280;63906;55.686;37.532;2023-06-22T15:30:35;99215.41;;;28.33;24.34
75312;BME280;63906;55.686;37.532;2023-06-22T15:35:36;99235.75;;;28.22;24.64
75312;BME280;63906;55.686;37.532;2023-06-22T15:40:36;99224.59;;;28.15;24.89
75312;BME280;63906;55.686;37.532;2023-06-22T15:45:37;99177.06;;;27.74;24.68
75312;BME280;63906;55.686;37.532;2023-06-22T15:50:37;99210.09;;;28.11;24.34
75312;BME280;63906;55.686;37.532;2023-06-22T15:55:38;99175.97;;;27.84;25.28
75312;BME280;63906;55.686;37.532;2023-06-22T16:00:38;99220.72;;;27.99;24.95
75312;BME280;63906;55.686;37.532;2023-06-22T16:05:42;99188.22;;;27.81;25.19
75312;BME280;63906;55.686;37.532;2023-06-22T16:10:43;99195.94;;;28.14;25.24
75312;BME280;63906;55.686;37.532;2023-06-22T16:15:46;99157.22;;;27.96;25.90
75312;BME280;63906;55.686;37.532;2023-06-22T16:20:47;99186.81;;;27.93;26.18
75312;BME280;63906;55.686;37.532;2023-06-22T16:25:47;99181.91;;;27.63;25.89
75312;BME280;63906;55.686;37.532;2023-06-22T16:30:48;99197.56;;;27.35;25.93
75312;BME280;63906;55.686;37.532;2023-06-22T16:35:48;99213.38;;;26.39;29.01
75312;BME280;63906;55.686;37.532;2023-06-22T16:40:49;99211.44;;;25.34;30.33
75312;BME280;63906;55.686;37.532;2023-06-22T16:45:49;99224.72;;;24.79;32.63
75312;BME280;63906;55.686;37.532;2023-06-22T16:50:50;99209.09;;;23.77;34.16
75312;BME280;63906;55.686;37.532;2023-06-22T16:55:51;99224.44;;;23.47;35.19
75312;BME280;63906;55.686;37.532;2023-06-22T17:00:56;99199.56;;;23.07;35.39
75312;BME280;63906;55.686;37.532;2023-06-22T17:05:58;99191.31;;;22.65;36.35
75312;BME280;63906;55.686;37.532;2023-06-22T17:10:58;99185.09;;;22.30;37.49
75312;BME280;63906;55.686;37.532;2023-06-22T17:16:01;99236.06;;;22.30;37.70
75312;BME280;63906;55.686;37.532;2023-06-22T17:21:02;99201.09;;;21.86;38.54
75312;BME280;63906;55.686;37.532;2023-06-22T17:26:05;99207.09;;;21.52;38.97
75312;BME280;63906;55.686;37.532;2023-06-22T17:31:09;99231.69;;;21.74;39.65
75312;BME280;63906;55.686;37.532;2023-06-22T17:36:11;99239.50;;;21.56;39.27
75312;BME280;63906;55.686;37.532;2023-06-22T17:41:13;99240.56;;;21.24;39.85
75312;BME280;63906;55.686;37.532;2023-06-22T17:46:14;99248.34;;;21.00;40.80
75312;BME280;63906;55.686;37.532;2023-06-22T17:51:16;99217.00;;;20.50;41.71
75312;BME280;63906;55.686;37.532;2023-06-22T17:56:18;99267.56;;;20.66;41.54
75312;BME280;63906;55.686;37.532;2023-06-22T18:01:40;99210.44;;;20.15;41.94
75312;BME280;63906;55.686;37.532;2023-06-22T18:06:42;99194.88;;;19.97;42.32
75312;BME280;63906;55.686;37.532;2023-06-22T18:11:49;99202.34;;;19.89;42.71
75312;BME280;63906;55.686;37.532;2023-06-22T18:16:50;99239.25;;;19.98;42.26
75312;BME280;63906;55.686;37.532;2023-06-22T18:21:54;99231.22;;;19.98;43.13
75312;BME280;63906;55.686;37.532;2023-06-22T18:26:55;99253.38;;;19.88;44.08
75312;BME280;63906;55.686;37.532;2023-06-22T18:31:56;99254.13;;;19.83;43.76
75312;BME280;63906;55.686;37.532;2023-06-22T18:36:59;99254.03;;;19.68;44.51
75312;BME280;63906;55.686;37.532;2023-06-22T18:42:00;99225.50;;;19.36;44.73
75312;BME280;63906;55.686;37.532;2023-06-22T18:47:03;99248.06;;;19.51;45.20
75312;BME280;63906;55.686;37.532;2023-06-22T18:52:05;99253.88;;;19.48;45.28
75312;BME280;63906;55.686;37.532;2023-06-22T19:28:29;99232.16;;;18.43;47.79
75312;BME280;63906;55.686;37.532;2023-06-22T19:33:30;99217.47;;;18.18;48.09
75312;BME280;63906;55.686;37.532;2023-06-22T19:38:32;99220.94;;;18.19;47.52
75312;BME280;63906;55.686;37.532;2023-06-22T19:43:34;99245.38;;;18.33;47.64
75312;BME280;63906;55.686;37.532;2023-06-22T19:48:34;99244.19;;;18.23;47.89
75312;BME280;63906;55.686;37.532;2023-06-22T19:53:40;99198.63;;;17.98;47.86
75312;BME280;63906;55.686;37.532;2023-06-22T19:58:42;99217.00;;;17.99;47.98
75312;BME280;63906;55.686;37.532;2023-06-22T20:03:43;99185.78;;;17.73;48.39
75312;BME280;63906;55.686;37.532;2023-06-22T20:08:54;99200.13;;;17.89;48.59
75312;BME280;63906;55.686;37.532;2023-06-22T20:13:59;99181.75;;;17.70;48.60
75312;BME280;63906;55.686;37.532;2023-06-22T20:19:12;99214.16;;;17.84;48.80
75312;BME280;63906;55.686;37.532;2023-06-22T20:24:14;99209.81;;;17.78;48.55
75312;BME280;63906;55.686;37.532;2023-06-22T20:29:27;99204.50;;;17.78;48.47
75312;BME280;63906;55.686;37.532;2023-06-22T20:39:35;99146.31;;;17.48;48.12
75312;BME280;63906;55.686;37.532;2023-06-22T20:44:35;99172.63;;;17.66;48.66
75312;BME280;63906;55.686;37.532;2023-06-22T20:49:36;99082.59;;;16.98;49.06
75312;BME280;63906;55.686;37.532;2023-06-22T20:54:37;99111.94;;;17.03;49.02
75312;BME280;63906;55.686;37.532;2023-06-22T20:59:38;99158.38;;;17.56;48.67
75312;BME280;63906;55.686;37.532;2023-06-22T21:04:38;99112.69;;;17.20;48.45
75312;BME280;63906;55.686;37.532;2023-06-22T21:09:42;99151.81;;;17.41;48.82
75312;BME280;63906;55.686;37.532;2023-06-22T21:14:43;99153.06;;;17.34;49.25
75312;BME280;63906;55.686;37.532;2023-06-22T21:19:47;99140.50;;;17.12;49.10
75312;BME280;63906;55.686;37.532;2023-06-22T21:30:10;99112.91;;;16.80;49.53
75312;BME280;63906;55.686;37.532;2023-06-22T21:35:11;99089.75;;;16.63;49.73
75312;BME280;63906;55.686;37.532;2023-06-22T21:40:14;99139.63;;;17.07;49.52
75312;BME280;63906;55.686;37.532;2023-06-22T21:45:14;99131.88;;;17.05;49.91
75312;BME280;63906;55.686;37.532;2023-06-22T21:50:15;99086.63;;;16.66;49.84
75312;BME280;63906;55.686;37.532;2023-06-22T21:55:16;99094.47;;;16.90;49.45
75312;BME280;63906;55.686;37.532;2023-06-22T22:00:16;99106.13;;;16.89;49.88
75312;BME280;63906;55.686;37.532;2023-06-22T22:05:17;99084.22;;;16.65;49.95
75312;BME280;63906;55.686;37.532;2023-06-22T22:10:18;99066.50;;;16.54;50.41
75312;BME280;63906;55.686;37.532;2023-06-22T22:15:19;99060.03;;;16.33;50.54
75312;BME280;63906;55.686;37.532;2023-06-22T22:20:23;99048.88;;;16.31;50.32
75312;BME280;63906;55.686;37.532;2023-06-22T22:25:24;99070.81;;;16.09;51.10
75312;BME280;63906;55.686;37.532;2023-06-22T22:30:26;99087.50;;;16.22;50.34
75312;BME280;63906;55.686;37.532;2023-06-22T22:35:27;99088.22;;;16.17;50.38
75312;BME280;63906;55.686;37.532;2023-06-22T22:40:27;99042.22;;;16.00;50.30
75312;BME280;63906;55.686;37.532;2023-06-22T22:45:28;99038.78;;;15.99;50.51
75312;BME280;63906;55.686;37.532;2023-06-22T22:50:28;99066.78;;;16.07;50.28
75312;BME280;63906;55.686;37.532;2023-06-22T22:55:29;99040.88;;;15.97;50.33
75312;BME280;63906;55.686;37.532;2023-06-22T23:00:31;99028.13;;;15.82;50.16
75312;BME280;63906;55.686;37.532;2023-06-22T23:05:32;99021.69;;;15.78;50.06
75312;BME280;63906;55.686;37.532;2023-06-22T23:10:33;99062.28;;;16.07;50.83
75312;BME280;63906;55.686;37.532;2023-06-22T23:15:34;99058.50;;;16.03;50.71
75312;BME280;63906;55.686;37.532;2023-06-22T23:20:37;99044.25;;;15.93;51.16
75312;BME280;63906;55.686;37.532;2023-06-22T23:25:41;99069.03;;;15.98;51.48
75312;BME280;63906;55.686;37.532;2023-06-22T23:30:42;99076.78;;;16.17;51.03
75312;BME280;63906;55.686;37.532;2023-06-22T23:35:43;99026.22;;;15.78;50.96
75312;BME280;63906;55.686;37.532;2023-06-22T23:40:44;99035.47;;;15.92;50.91
75312;BME280;63906;55.686;37.532;2023-06-22T23:45:45;99042.72;;;15.97;50.95
75312;BME280;63906;55.686;37.532;2023-06-22T23:50:46;99058.81;;;15.90;51.13
75312;BME280;63906;55.686;37.532;2023-06-22T23:55:46;99012.91;;;15.49;51.72
